Temperatura - Umidità - Pioggia orarie del 21-10-2020

Intensità - Direzione vento orarie del 21-10-2020

Dati orari da stazione meteo del 21-10-2020

Nome Stazione Data Ora Temperatura [°C] Umidità [%] Pioggia [mm] Intensità vento[km/h] Direzione vento [°]
Savigliano 20-10-2020 02:00 11 85.2 0 0.4 283
Savigliano 20-10-2020 03:00 10.4 85.4 0 0.4 298
Savigliano 20-10-2020 04:00 9.8 86.5 0 0.4 296
Savigliano 20-10-2020 05:00 9.8 86.8 0 0.4 286
Savigliano 20-10-2020 06:00 9.6 87 0 0 266
Savigliano 20-10-2020 07:00 9.5 87 0 0 266
Savigliano 20-10-2020 08:00 9.5 87.7 0 0 266
Savigliano 20-10-2020 09:00 9.7 90.9 0 0 264
Savigliano 20-10-2020 10:00 10.5 90 0 0 263
Savigliano 20-10-2020 11:00 12.5 86.4 0 0.4 269
Savigliano 20-10-2020 12:00 12.2 82.7 0 1.1 293
Savigliano 20-10-2020 13:00 13.1 80.6 0 0.7 219
Savigliano 20-10-2020 14:00 14.6 76.9 0 1.1 237
Savigliano 20-10-2020 15:00 14.8 75.1 0 1.1 139
Savigliano 20-10-2020 16:00 14.8 74.9 0 1.1 237
Savigliano 20-10-2020 17:00 14.4 77.7 0 1.4 264
Savigliano 20-10-2020 18:00 13 81 0 0.7 292
Savigliano 20-10-2020 19:00 11.8 79.9 0 2.2 298
Savigliano 20-10-2020 20:00 12.4 81.7 0 0.4 308
Savigliano 20-10-2020 21:00 12.2 86.9 0 0.7 313
Savigliano 20-10-2020 22:00 11.9 85.7 0 0.4 300
Savigliano 20-10-2020 23:00 11.7 86.8 0 0.4 309
Savigliano 21-10-2020 00:00 11.6 87.5 0 0 301
Savigliano 21-10-2020 01:00 11.1 88.1 0 0.4 302
Savigliano 21-10-2020 02:00 10.9 90.9 0 0 300
Savigliano 21-10-2020 03:00 10.7 90.8 0 0 300

Riassuntivo giornaliero del 21-10-2020